Flight Track Log - Related Links

Times and Time Zones

All times are in EDT time to prevent confusion due to time zone crossing. See the FDX697 flight status page for this flight to view local times or setup timezone preferences in your user account.

Time Position Orientation Groundspeed Altitude Reporting Facility
EDT Latitude Longitude Course Direction KTS MPH feet Rate Location/Type
Sat 08:29:27 AM 41.5303 -93.6642 232° Southwest 158 182 1,400  Level Minneapolis Center
Sat 08:30:15 AM 41.5058 -93.7064 232° Southwest 170 196 3,200 2,312 Climbing Minneapolis Center
Sat 08:31:16 AM 41.4472 -93.6908 169° South 263 303 5,600 2,708 Climbing Minneapolis Center
Sat 08:32:08 AM 41.3906 -93.6547 154° Southeast 255 293 8,300 2,655 Climbing Minneapolis Center
Sat 08:33:09 AM 41.3333 -93.6058 147° Southeast 265 305 10,600 2,373 Climbing Minneapolis Center
Sat 08:38:45 AM 40.8690 -93.0720 147° Southeast 433 498 24,000 2,371 Climbing FlightAware ADS-B
Sat 08:39:16 AM 40.8320 -93.0030 125° Southeast 437 503 25,100 957 Climbing FlightAware ADS-B
Sat 08:39:54 AM 40.7930 -92.9340 127° Southeast 437 503 25,100  Level FlightAware ADS-B
Sat 08:40:31 AM 40.7560 -92.8660 126° Southeast 437 503 25,100 2,500 Level FlightAware ADS-B
Sat 08:41:06 AM 40.6960 -92.7600 127° Southeast 462 532 28,100 3,281 Climbing FlightAware ADS-B
Sat 08:41:35 AM 40.6640 -92.7030 126° Southeast 468 539 28,600 1,452 Climbing FlightAware ADS-B
Sat 08:42:08 AM 40.6200 -92.6240 126° Southeast 470 541 29,600 1,917 Climbing FlightAware ADS-B
Sat 08:42:47 AM 40.5670 -92.5300 127° Southeast 469 540 30,900 1,773 Climbing FlightAware ADS-B
Sat 08:43:36 AM 40.5020 -92.4170 127° Southeast 474 545 32,200 1,761 Climbing FlightAware ADS-B
Sat 08:44:19 AM 40.4460 -92.3160 126° Southeast 472 543 33,600 1,835 Climbing FlightAware ADS-B
Sat 08:45:01 AM 40.3920 -92.2220 127° Southeast 471 542 34,800 1,050 Climbing FlightAware ADS-B
Sat 08:45:39 AM 40.3400 -92.1430 131° Southeast 457 526 35,000 203 Climbing FlightAware ADS-B
Sat 08:46:00 AM 40.3020 -92.1080 145° Southeast 442 509 35,000  Level FlightAware ADS-B
Sat 08:46:26 AM 40.2550 -92.0830 158° South 428 493 35,000  Level FlightAware ADS-B
Sat 08:47:06 AM 40.1780 -92.0590 167° South 427 491 35,000  Level FlightAware ADS-B
Sat 08:47:43 AM 40.1050 -92.0390 168° South 427 491 35,000  Level FlightAware ADS-B
Sat 08:48:18 AM 40.0380 -92.0200 168° South 428 493 35,000  Level FlightAware ADS-B
Sat 08:48:55 AM 39.9660 -91.9990 167° South 432 497 35,000  Level FlightAware ADS-B
Sat 08:49:25 AM 39.9050 -91.9820 168° South 432 497 35,000  Level FlightAware ADS-B
Sat 08:50:01 AM 39.8370 -91.9620 167° South 433 498 35,000  Level FlightAware ADS-B
Sat 08:50:39 AM 39.7610 -91.9410 168° South 434 499 35,000  Level FlightAware ADS-B
Sat 08:51:12 AM 39.6990 -91.9230 167° South 435 501 35,000  Level FlightAware ADS-B
Sat 08:51:47 AM 39.6270 -91.9030 168° South 436 502 35,000  Level FlightAware ADS-B
Sat 08:52:24 AM 39.5550 -91.8820 167° South 436 502 35,000  Level FlightAware ADS-B
Sat 08:52:56 AM 39.4920 -91.8640 168° South 437 503 35,000  Level FlightAware ADS-B
Sat 08:53:31 AM 39.4230 -91.8450 168° South 436 502 35,000  Level FlightAware ADS-B
Sat 08:54:06 AM 39.3530 -91.8250 168° South 434 499 35,000  Level FlightAware ADS-B
Sat 08:54:41 AM 39.2850 -91.8060 168° South 433 498 35,000  Level FlightAware ADS-B
Sat 08:55:17 AM 39.2140 -91.7860 168° South 431 496 35,000  Level FlightAware ADS-B
Sat 08:55:54 AM 39.1410 -91.7660 168° South 429 494 35,000  Level FlightAware ADS-B
Sat 08:56:30 AM 39.0710 -91.7460 167° South 429 494 35,000  Level FlightAware ADS-B
Sat 08:57:01 AM 39.0120 -91.7300 168° South 427 491 35,000  Level FlightAware ADS-B
Sat 08:57:36 AM 38.9440 -91.7110 168° South 427 491 35,000  Level FlightAware ADS-B
Sat 08:58:13 AM 38.8720 -91.6910 168° South 427 491 35,000  Level FlightAware ADS-B
Sat 08:58:47 AM 38.8080 -91.6730 168° South 429 494 35,000  Level FlightAware ADS-B
Sat 08:59:25 AM 38.7330 -91.6520 168° South 435 501 35,000  Level FlightAware ADS-B
Sat 08:59:57 AM 38.6690 -91.6350 168° South 437 503 35,000  Level FlightAware ADS-B
Sat 09:00:29 AM 38.6050 -91.6170 168° South 439 505 35,000  Level FlightAware ADS-B
Sat 09:01:08 AM 38.5260 -91.5950 168° South 441 507 35,000  Level FlightAware ADS-B
Sat 09:01:41 AM 38.4610 -91.5780 168° South 442 509 35,000  Level FlightAware ADS-B
Sat 09:02:17 AM 38.3880 -91.5570 167° South 444 511 35,000  Level FlightAware ADS-B
Sat 09:02:54 AM 38.3130 -91.5370 168° South 445 512 35,000  Level FlightAware ADS-B
Sat 09:03:29 AM 38.2470 -91.5190 168° South 446 513 35,000  Level FlightAware ADS-B
Sat 09:04:02 AM 38.1760 -91.5000 168° South 447 514 35,000  Level FlightAware ADS-B
Sat 09:04:38 AM 38.1030 -91.4800 168° South 447 514 35,000 -169 Level FlightAware ADS-B
Sat 09:05:13 AM 38.0330 -91.4610 168° South 445 512 34,800 -750 Descending FlightAware ADS-B
Sat 09:05:50 AM 37.9610 -91.4410 168° South 447 514 34,100 -696 Descending FlightAware ADS-B
Sat 09:06:22 AM 37.8990 -91.4250 168° South 446 513 34,000 -90 Descending FlightAware ADS-B
Sat 09:06:57 AM 37.8240 -91.4050 168° South 446 513 34,000  Level FlightAware ADS-B
Sat 09:07:31 AM 37.7550 -91.3860 168° South 450 518 34,000  Level FlightAware ADS-B
Sat 09:08:06 AM 37.6820 -91.3660 168° South 456 525 34,000  Level FlightAware ADS-B
Sat 09:08:43 AM 37.6060 -91.3460 168° South 461 531 34,000  Level FlightAware ADS-B
Sat 09:09:20 AM 37.5260 -91.3250 168° South 466 536 34,000  Level FlightAware ADS-B
Sat 09:09:52 AM 37.4580 -91.3070 168° South 469 540 34,000  Level FlightAware ADS-B
Sat 09:10:27 AM 37.3840 -91.2870 168° South 471 542 34,000  Level FlightAware ADS-B
Sat 09:11:01 AM 37.3100 -91.2670 168° South 470 541 34,000 -593 Level FlightAware ADS-B
Sat 09:11:58 AM 37.1920 -91.2360 168° South 465 535 33,100 -645 Descending FlightAware ADS-B
Sat 09:12:34 AM 37.1170 -91.2160 168° South 464 534 33,000 -88 Descending FlightAware ADS-B
Sat 09:13:06 AM 37.0470 -91.1980 168° South 464 534 33,000  Level FlightAware ADS-B
Sat 09:13:43 AM 36.9700 -91.1780 168° South 465 535 33,000  Level FlightAware ADS-B
Sat 09:14:18 AM 36.8940 -91.1570 168° South 455 524 33,000  Level FlightAware ADS-B
Sat 09:14:54 AM 36.8210 -91.1380 168° South 452 520 33,000  Level FlightAware ADS-B
Sat 09:15:26 AM 36.7570 -91.1210 168° South 451 519 33,000  Level FlightAware ADS-B
Sat 09:16:02 AM 36.6820 -91.1020 169° South 449 517 33,000  Level FlightAware ADS-B
Sat 09:16:36 AM 36.6130 -91.0840 168° South 448 516 33,000  Level FlightAware ADS-B
Sat 09:17:14 AM 36.5370 -91.0640 168° South 446 513 33,000  Level FlightAware ADS-B
Sat 09:17:46 AM 36.4720 -91.0470 168° South 445 512 33,000 -529 Level FlightAware ADS-B
Sat 09:18:22 AM 36.4000 -91.0290 169° South 438 504 32,400 -1,826 Descending FlightAware ADS-B
Sat 09:18:55 AM 36.3340 -91.0110 168° South 440 506 30,900 -2,833 Descending FlightAware ADS-B
Sat 09:19:34 AM 36.2550 -90.9910 168° South 442 509 29,000 -2,022 Descending FlightAware ADS-B
Sat 09:20:24 AM 36.1630 -90.9670 168° South 442 509 27,900 -759 Descending FlightAware ADS-B
Sat 09:21:01 AM 36.1000 -90.9510 168° South 442 509 27,900  Level FlightAware ADS-B
Sat 09:21:37 AM 36.0390 -90.9350 168° South 442 509 27,900  Level FlightAware ADS-B
Sat 09:22:13 AM 35.9780 -90.9190 168° South 442 509 27,900  Level FlightAware ADS-B
Sat 09:22:49 AM 35.9170 -90.9030 168° South 442 509 27,900  Level FlightAware ADS-B
Sat 09:23:25 AM 35.8560 -90.8860 167° South 442 509 27,900 -5,049 Level FlightAware ADS-B
Sat 09:24:11 AM 35.7480 -90.8590 169° South 383 441 21,000 -4,787 Descending FlightAware ADS-B
Sat 09:24:54 AM 35.6800 -90.8420 169° South 383 441 20,800 -978 Descending FlightAware ADS-B
Sat 09:25:43 AM 35.5980 -90.8200 168° South 374 430 19,500 -918 Descending FlightAware ADS-B
Sat 09:26:19 AM 35.5460 -90.8070 169° South 374 430 19,500  Level FlightAware ADS-B
Sat 09:26:55 AM 35.4950 -90.7930 167° South 374 430 19,500 -3,571 Level FlightAware ADS-B
Sat 09:27:01 AM 35.4660 -90.7720 149° Southeast 368 423 17,000 -10,125 Descending FlightAware ADS-B
Sat 09:27:11 AM 35.4530 -90.7540 132° Southeast 374 430 16,800 -1,400 Descending FlightAware ADS-B
Sat 09:27:31 AM 35.4360 -90.7160 119° Southeast 379 436 16,300 -500 Descending FlightAware ADS-B
Sat 09:28:11 AM 35.4100 -90.6500 116° Southeast 379 436 16,300  Level FlightAware ADS-B
Sat 09:28:47 AM 35.3870 -90.5910 116° Southeast 379 436 16,300  Level FlightAware ADS-B
Sat 09:29:23 AM 35.3630 -90.5310 116° Southeast 379 436 16,300  Level FlightAware ADS-B
Sat 09:29:59 AM 35.3400 -90.4720 116° Southeast 379 436 16,300 -2,806 Level FlightAware ADS-B
Sat 09:30:25 AM 35.2990 -90.4040 126° Southeast 321 369 13,400 -3,224 Descending FlightAware ADS-B
Sat 09:31:06 AM 35.2600 -90.3490 131° Southeast 301 346 12,700 -692 Descending FlightAware ADS-B
Sat 09:31:43 AM 35.2320 -90.3070 129° Southeast 299 344 12,500 -1,477 Descending FlightAware ADS-B
Sat 09:32:11 AM 35.2040 -90.2650 129° Southeast 294 338 11,100 -1,482 Descending FlightAware ADS-B
Sat 09:33:08 AM 35.1590 -90.1970 129° Southeast 292 336 10,400 -1,214 Descending FlightAware ADS-B
Sat 09:33:35 AM 35.1330 -90.1590 130° Southeast 275 316 9,400 -1,818 Descending FlightAware ADS-B
Sat 09:34:14 AM 35.1000 -90.1160 133° Southeast 258 297 8,400 -957 Descending FlightAware ADS-B
Sat 09:34:44 AM 35.0740 -90.0980 150° Southeast 257 296 8,300 -111 Descending FlightAware ADS-B
Sat 09:35:08 AM 35.0530 -90.0830 150° Southeast 257 296 8,300 -3,130 Level FlightAware ADS-B
Sat 09:35:30 AM 35.0130 -90.1100 209° Southwest 240 276 5,900 -3,913 Descending FlightAware ADS-B
Sat 09:35:54 AM 34.9880 -90.1090 178° South 229 264 5,300 -1,756 Descending FlightAware ADS-B
Sat 09:36:11 AM 34.9710 -90.1080 177° South 224 258 4,700 -857 Descending FlightAware ADS-B
Sat 09:36:36 AM 34.9490 -90.1070 178° South 224 258 4,700 -1,846 Level FlightAware ADS-B
Sat 09:37:16 AM 34.9000 -90.1000 178° South 215 247 2,700 -1,620 Descending KMEM
Sat 09:38:16 AM 34.8833 -90.0500 112° Southeast 225 259 2,000 -400 Descending KMEM
Sat 09:39:16 AM 34.9167 -89.9833 59° Northeast 214 246 1,900 -250 Descending KMEM
Sat 09:40:16 AM 34.9667 -89.9833 360° North 191 220 1,500 -400 Descending KMEM
Sat 09:42:00 AM 35.0333 -89.9667 129° Southeast  Level FlightAware Approximate
Sat 09:49:00 AM 35.0424 -89.9767 129° Southeast  Level Estimated

Login

Don't have an account? Register now (free) for customized features, flight alerts, and more!